sensor_id;sensor_type;location;lat;lon;timestamp;temperature;humidity
55642;DHT22;41509;53.108;6.100;2024-03-07T00:01:23;3.90;99.90
55642;DHT22;41509;53.108;6.100;2024-03-07T00:03:51;4.00;99.90
55642;DHT22;41509;53.108;6.100;2024-03-07T00:06:17;4.00;99.90
55642;DHT22;41509;53.108;6.100;2024-03-07T00:08:42;4.00;99.90
55642;DHT22;41509;53.108;6.100;2024-03-07T00:11:08;3.90;99.90
55642;DHT22;41509;53.108;6.100;2024-03-07T00:13:34;3.90;99.90
55642;DHT22;41509;53.108;6.100;2024-03-07T00:16:00;3.90;99.90
55642;DHT22;41509;53.108;6.100;2024-03-07T00:18:27;3.90;99.90
55642;DHT22;41509;53.108;6.100;2024-03-07T00:20:52;4.00;99.90
55642;DHT22;41509;53.108;6.100;2024-03-07T00:23:20;3.90;99.90
55642;DHT22;41509;53.108;6.100;2024-03-07T00:25:45;4.00;99.90
55642;DHT22;41509;53.108;6.100;2024-03-07T00:28:14;3.90;99.90
55642;DHT22;41509;53.108;6.100;2024-03-07T00:30:42;4.00;99.90
55642;DHT22;41509;53.108;6.100;2024-03-07T00:33:10;4.00;99.90
55642;DHT22;41509;53.108;6.100;2024-03-07T00:35:35;3.90;99.90
55642;DHT22;41509;53.108;6.100;2024-03-07T00:38:01;4.00;99.90
55642;DHT22;41509;53.108;6.100;2024-03-07T00:40:26;4.00;99.90
55642;DHT22;41509;53.108;6.100;2024-03-07T00:42:52;3.90;99.90
55642;DHT22;41509;53.108;6.100;2024-03-07T00:45:18;4.00;99.90
55642;DHT22;41509;53.108;6.100;2024-03-07T00:47:43;3.90;99.90
55642;DHT22;41509;53.108;6.100;2024-03-07T00:50:09;3.90;99.90
55642;DHT22;41509;53.108;6.100;2024-03-07T00:52:35;3.90;99.90
55642;DHT22;41509;53.108;6.100;2024-03-07T00:55:01;3.90;99.90
55642;DHT22;41509;53.108;6.100;2024-03-07T00:57:27;3.90;99.90
55642;DHT22;41509;53.108;6.100;2024-03-07T00:59:52;3.90;99.90
55642;DHT22;41509;53.108;6.100;2024-03-07T01:02:18;3.90;99.90
55642;DHT22;41509;53.108;6.100;2024-03-07T01:04:44;3.80;99.90
55642;DHT22;41509;53.108;6.100;2024-03-07T01:07:09;3.80;99.90
55642;DHT22;41509;53.108;6.100;2024-03-07T01:09:35;3.80;99.90
55642;DHT22;41509;53.108;6.100;2024-03-07T01:12:01;3.80;99.90
55642;DHT22;41509;53.108;6.100;2024-03-07T01:14:29;3.80;99.90
55642;DHT22;41509;53.108;6.100;2024-03-07T01:16:56;3.80;99.90
55642;DHT22;41509;53.108;6.100;2024-03-07T01:19:21;3.80;99.90
55642;DHT22;41509;53.108;6.100;2024-03-07T01:21:47;3.80;99.90
55642;DHT22;41509;53.108;6.100;2024-03-07T01:24:13;3.80;99.90
55642;DHT22;41509;53.108;6.100;2024-03-07T01:26:43;3.70;99.90
55642;DHT22;41509;53.108;6.100;2024-03-07T01:29:09;3.70;99.90
55642;DHT22;41509;53.108;6.100;2024-03-07T01:31:34;3.70;99.90
55642;DHT22;41509;53.108;6.100;2024-03-07T01:34:00;3.70;99.90
55642;DHT22;41509;53.108;6.100;2024-03-07T01:36:25;3.70;99.90
55642;DHT22;41509;53.108;6.100;2024-03-07T01:38:51;3.70;99.90
55642;DHT22;41509;53.108;6.100;2024-03-07T01:41:16;3.70;99.90
55642;DHT22;41509;53.108;6.100;2024-03-07T01:43:42;3.60;99.90
55642;DHT22;41509;53.108;6.100;2024-03-07T01:46:08;3.60;99.90
55642;DHT22;41509;53.108;6.100;2024-03-07T01:48:35;3.60;99.90
55642;DHT22;41509;53.108;6.100;2024-03-07T01:51:01;3.60;99.90
55642;DHT22;41509;53.108;6.100;2024-03-07T01:53:31;3.50;99.90
55642;DHT22;41509;53.108;6.100;2024-03-07T01:55:58;3.50;99.90
55642;DHT22;41509;53.108;6.100;2024-03-07T01:58:24;3.50;99.90
55642;DHT22;41509;53.108;6.100;2024-03-07T02:00:50;3.50;99.90
55642;DHT22;41509;53.108;6.100;2024-03-07T02:03:15;3.50;99.90
55642;DHT22;41509;53.108;6.100;2024-03-07T02:05:41;3.40;99.90
55642;DHT22;41509;53.108;6.100;2024-03-07T02:08:07;3.40;99.90
55642;DHT22;41509;53.108;6.100;2024-03-07T02:10:32;3.40;99.90
55642;DHT22;41509;53.108;6.100;2024-03-07T02:12:58;3.40;99.90
55642;DHT22;41509;53.108;6.100;2024-03-07T02:15:23;3.30;99.90
55642;DHT22;41509;53.108;6.100;2024-03-07T02:17:49;3.30;99.90
55642;DHT22;41509;53.108;6.100;2024-03-07T02:20:15;3.30;99.90
55642;DHT22;41509;53.108;6.100;2024-03-07T02:22:41;3.30;99.90
55642;DHT22;41509;53.108;6.100;2024-03-07T02:25:07;3.20;99.90
55642;DHT22;41509;53.108;6.100;2024-03-07T02:27:35;3.30;99.90
55642;DHT22;41509;53.108;6.100;2024-03-07T02:30:01;3.20;99.90
55642;DHT22;41509;53.108;6.100;2024-03-07T02:32:29;3.20;99.90
55642;DHT22;41509;53.108;6.100;2024-03-07T02:34:54;3.20;99.90
55642;DHT22;41509;53.108;6.100;2024-03-07T02:37:20;3.10;99.90
55642;DHT22;41509;53.108;6.100;2024-03-07T02:39:45;3.10;99.90
55642;DHT22;41509;53.108;6.100;2024-03-07T02:42:11;3.20;99.90
55642;DHT22;41509;53.108;6.100;2024-03-07T02:44:36;3.10;99.90
55642;DHT22;41509;53.108;6.100;2024-03-07T02:47:04;3.10;99.90
55642;DHT22;41509;53.108;6.100;2024-03-07T02:49:30;3.00;99.90
55642;DHT22;41509;53.108;6.100;2024-03-07T02:51:55;3.00;99.90
55642;DHT22;41509;53.108;6.100;2024-03-07T02:54:21;3.00;99.90
55642;DHT22;41509;53.108;6.100;2024-03-07T02:56:46;3.00;99.90
55642;DHT22;41509;53.108;6.100;2024-03-07T02:59:15;3.00;99.90
55642;DHT22;41509;53.108;6.100;2024-03-07T03:01:40;3.00;99.90
55642;DHT22;41509;53.108;6.100;2024-03-07T03:04:06;2.90;99.90
55642;DHT22;41509;53.108;6.100;2024-03-07T03:06:32;2.90;99.90
55642;DHT22;41509;53.108;6.100;2024-03-07T03:08:57;2.90;99.90
55642;DHT22;41509;53.108;6.100;2024-03-07T03:11:23;2.90;99.90
55642;DHT22;41509;53.108;6.100;2024-03-07T03:13:51;2.80;99.90
55642;DHT22;41509;53.108;6.100;2024-03-07T03:16:21;2.80;99.90
55642;DHT22;41509;53.108;6.100;2024-03-07T03:18:47;2.80;99.90
55642;DHT22;41509;53.108;6.100;2024-03-07T03:21:14;2.80;99.90
55642;DHT22;41509;53.108;6.100;2024-03-07T03:23:40;2.80;99.90
55642;DHT22;41509;53.108;6.100;2024-03-07T03:26:06;2.70;99.90
55642;DHT22;41509;53.108;6.100;2024-03-07T03:28:32;2.70;99.90
55642;DHT22;41509;53.108;6.100;2024-03-07T03:30:57;2.70;99.90
55642;DHT22;41509;53.108;6.100;2024-03-07T03:33:23;2.70;99.90
55642;DHT22;41509;53.108;6.100;2024-03-07T03:35:48;2.70;99.90
55642;DHT22;41509;53.108;6.100;2024-03-07T03:38:14;2.70;99.90
55642;DHT22;41509;53.108;6.100;2024-03-07T03:40:40;2.70;99.90
55642;DHT22;41509;53.108;6.100;2024-03-07T03:43:06;2.70;99.90
55642;DHT22;41509;53.108;6.100;2024-03-07T03:45:32;2.60;99.90
55642;DHT22;41509;53.108;6.100;2024-03-07T03:47:59;2.60;99.90
55642;DHT22;41509;53.108;6.100;2024-03-07T03:50:24;2.70;99.90
55642;DHT22;41509;53.108;6.100;2024-03-07T03:52:51;2.60;99.90
55642;DHT22;41509;53.108;6.100;2024-03-07T03:55:17;2.60;99.90
55642;DHT22;41509;53.108;6.100;2024-03-07T03:57:43;2.60;99.90
55642;DHT22;41509;53.108;6.100;2024-03-07T04:00:09;2.60;99.90
55642;DHT22;41509;53.108;6.100;2024-03-07T04:02:41;2.60;99.90
55642;DHT22;41509;53.108;6.100;2024-03-07T04:05:07;2.60;99.90
55642;DHT22;41509;53.108;6.100;2024-03-07T04:07:34;2.60;99.90
55642;DHT22;41509;53.108;6.100;2024-03-07T04:10:00;2.60;99.90
55642;DHT22;41509;53.108;6.100;2024-03-07T04:12:28;2.60;99.90
55642;DHT22;41509;53.108;6.100;2024-03-07T04:14:54;2.50;99.90
55642;DHT22;41509;53.108;6.100;2024-03-07T04:17:25;2.60;99.90
55642;DHT22;41509;53.108;6.100;2024-03-07T04:19:51;2.50;99.90
55642;DHT22;41509;53.108;6.100;2024-03-07T04:22:17;2.50;99.90
55642;DHT22;41509;53.108;6.100;2024-03-07T04:24:45;2.50;99.90
55642;DHT22;41509;53.108;6.100;2024-03-07T04:27:11;2.50;99.90
55642;DHT22;41509;53.108;6.100;2024-03-07T04:29:36;2.50;99.90
55642;DHT22;41509;53.108;6.100;2024-03-07T04:32:02;2.40;99.90
55642;DHT22;41509;53.108;6.100;2024-03-07T04:34:29;2.40;99.90
55642;DHT22;41509;53.108;6.100;2024-03-07T04:36:56;2.40;99.90
55642;DHT22;41509;53.108;6.100;2024-03-07T04:39:22;2.40;99.90
55642;DHT22;41509;53.108;6.100;2024-03-07T04:41:50;2.40;99.90
55642;DHT22;41509;53.108;6.100;2024-03-07T04:44:19;2.30;99.90
55642;DHT22;41509;53.108;6.100;2024-03-07T04:46:48;2.40;99.90
55642;DHT22;41509;53.108;6.100;2024-03-07T04:49:15;2.30;99.90
55642;DHT22;41509;53.108;6.100;2024-03-07T04:51:40;2.30;99.90
55642;DHT22;41509;53.108;6.100;2024-03-07T04:54:06;2.30;99.90
55642;DHT22;41509;53.108;6.100;2024-03-07T04:56:32;2.30;99.90
55642;DHT22;41509;53.108;6.100;2024-03-07T04:58:57;2.30;99.90
55642;DHT22;41509;53.108;6.100;2024-03-07T05:01:23;2.30;99.90
55642;DHT22;41509;53.108;6.100;2024-03-07T05:03:50;2.20;99.90
55642;DHT22;41509;53.108;6.100;2024-03-07T05:06:17;2.20;99.90
55642;DHT22;41509;53.108;6.100;2024-03-07T05:08:43;2.20;99.90
55642;DHT22;41509;53.108;6.100;2024-03-07T05:11:09;2.20;99.90
55642;DHT22;41509;53.108;6.100;2024-03-07T05:13:35;2.20;99.90
55642;DHT22;41509;53.108;6.100;2024-03-07T05:16:02;2.20;99.90
55642;DHT22;41509;53.108;6.100;2024-03-07T05:18:30;2.20;99.90
55642;DHT22;41509;53.108;6.100;2024-03-07T05:20:56;2.20;99.90
55642;DHT22;41509;53.108;6.100;2024-03-07T05:23:22;2.10;99.90
55642;DHT22;41509;53.108;6.100;2024-03-07T05:25:48;2.20;99.90
55642;DHT22;41509;53.108;6.100;2024-03-07T05:28:16;2.10;99.90
55642;DHT22;41509;53.108;6.100;2024-03-07T05:30:41;2.20;99.90
55642;DHT22;41509;53.108;6.100;2024-03-07T05:33:07;2.10;99.90
55642;DHT22;41509;53.108;6.100;2024-03-07T05:35:33;2.20;99.90
55642;DHT22;41509;53.108;6.100;2024-03-07T05:37:58;2.10;99.90
55642;DHT22;41509;53.108;6.100;2024-03-07T05:40:27;2.10;99.90
55642;DHT22;41509;53.108;6.100;2024-03-07T05:42:52;2.10;99.90
55642;DHT22;41509;53.108;6.100;2024-03-07T05:45:18;2.10;99.90
55642;DHT22;41509;53.108;6.100;2024-03-07T05:47:44;2.10;99.90
55642;DHT22;41509;53.108;6.100;2024-03-07T05:50:12;2.10;99.90
55642;DHT22;41509;53.108;6.100;2024-03-07T05:52:41;2.10;99.90
55642;DHT22;41509;53.108;6.100;2024-03-07T05:55:06;2.10;99.90
55642;DHT22;41509;53.108;6.100;2024-03-07T05:57:33;2.10;99.90
55642;DHT22;41509;53.108;6.100;2024-03-07T06:00:02;2.10;99.90
55642;DHT22;41509;53.108;6.100;2024-03-07T06:02:34;2.10;99.90
55642;DHT22;41509;53.108;6.100;2024-03-07T06:05:02;2.10;99.90
55642;DHT22;41509;53.108;6.100;2024-03-07T06:07:29;2.10;99.90
55642;DHT22;41509;53.108;6.100;2024-03-07T06:09:54;2.10;99.90
55642;DHT22;41509;53.108;6.100;2024-03-07T06:12:19;2.10;99.90
55642;DHT22;41509;53.108;6.100;2024-03-07T06:14:46;2.10;99.90
55642;DHT22;41509;53.108;6.100;2024-03-07T06:17:12;2.10;99.90
55642;DHT22;41509;53.108;6.100;2024-03-07T06:19:37;2.00;99.90
55642;DHT22;41509;53.108;6.100;2024-03-07T06:22:06;2.10;99.90
55642;DHT22;41509;53.108;6.100;2024-03-07T06:24:34;2.10;99.90
55642;DHT22;41509;53.108;6.100;2024-03-07T06:26:59;2.00;99.90
55642;DHT22;41509;53.108;6.100;2024-03-07T06:29:25;2.00;99.90
55642;DHT22;41509;53.108;6.100;2024-03-07T06:31:52;2.00;99.90
55642;DHT22;41509;53.108;6.100;2024-03-07T06:34:19;2.00;99.90
55642;DHT22;41509;53.108;6.100;2024-03-07T06:36:45;2.00;99.90
55642;DHT22;41509;53.108;6.100;2024-03-07T06:39:10;2.00;99.90
55642;DHT22;41509;53.108;6.100;2024-03-07T06:41:36;1.90;99.90
55642;DHT22;41509;53.108;6.100;2024-03-07T06:44:02;1.90;99.90
55642;DHT22;41509;53.108;6.100;2024-03-07T06:46:28;1.90;99.90
55642;DHT22;41509;53.108;6.100;2024-03-07T06:48:54;1.90;99.90
55642;DHT22;41509;53.108;6.100;2024-03-07T06:51:21;1.90;99.90
55642;DHT22;41509;53.108;6.100;2024-03-07T06:53:47;1.90;99.90
55642;DHT22;41509;53.108;6.100;2024-03-07T06:56:13;1.90;99.90
55642;DHT22;41509;53.108;6.100;2024-03-07T06:58:39;1.90;99.90
55642;DHT22;41509;53.108;6.100;2024-03-07T07:01:05;1.90;99.90
55642;DHT22;41509;53.108;6.100;2024-03-07T07:03:35;1.90;99.90
55642;DHT22;41509;53.108;6.100;2024-03-07T07:06:01;1.90;99.90
55642;DHT22;41509;53.108;6.100;2024-03-07T07:08:26;1.90;99.90
55642;DHT22;41509;53.108;6.100;2024-03-07T07:10:55;1.90;99.90
55642;DHT22;41509;53.108;6.100;2024-03-07T07:13:21;1.90;99.90
55642;DHT22;41509;53.108;6.100;2024-03-07T07:15:47;1.90;99.90
55642;DHT22;41509;53.108;6.100;2024-03-07T07:18:12;2.00;99.90
55642;DHT22;41509;53.108;6.100;2024-03-07T07:20:39;2.00;99.90
55642;DHT22;41509;53.108;6.100;2024-03-07T07:23:04;2.10;99.90
55642;DHT22;41509;53.108;6.100;2024-03-07T07:25:30;2.10;99.90
55642;DHT22;41509;53.108;6.100;2024-03-07T07:27:56;2.10;99.90
55642;DHT22;41509;53.108;6.100;2024-03-07T07:30:22;2.10;99.90
55642;DHT22;41509;53.108;6.100;2024-03-07T07:32:50;2.20;99.90
55642;DHT22;41509;53.108;6.100;2024-03-07T07:35:16;2.30;99.90
55642;DHT22;41509;53.108;6.100;2024-03-07T07:37:42;2.30;99.90
55642;DHT22;41509;53.108;6.100;2024-03-07T07:40:11;2.30;99.90
55642;DHT22;41509;53.108;6.100;2024-03-07T07:42:47;2.40;99.90
55642;DHT22;41509;53.108;6.100;2024-03-07T07:45:13;2.40;99.90
55642;DHT22;41509;53.108;6.100;2024-03-07T07:47:39;2.50;99.90
55642;DHT22;41509;53.108;6.100;2024-03-07T07:50:07;2.50;99.90
55642;DHT22;41509;53.108;6.100;2024-03-07T07:52:41;2.50;99.90
55642;DHT22;41509;53.108;6.100;2024-03-07T07:55:07;2.50;99.90
55642;DHT22;41509;53.108;6.100;2024-03-07T07:57:49;2.50;99.90
55642;DHT22;41509;53.108;6.100;2024-03-07T08:00:17;2.50;99.90
55642;DHT22;41509;53.108;6.100;2024-03-07T08:05:27;2.50;99.90
55642;DHT22;41509;53.108;6.100;2024-03-07T08:07:54;2.40;99.90
55642;DHT22;41509;53.108;6.100;2024-03-07T08:10:29;2.40;99.90
55642;DHT22;41509;53.108;6.100;2024-03-07T08:12:55;2.50;99.90
55642;DHT22;41509;53.108;6.100;2024-03-07T08:15:21;2.50;99.90
55642;DHT22;41509;53.108;6.100;2024-03-07T08:17:47;2.50;99.90
55642;DHT22;41509;53.108;6.100;2024-03-07T08:20:18;2.50;99.90
55642;DHT22;41509;53.108;6.100;2024-03-07T08:22:46;2.50;99.90
55642;DHT22;41509;53.108;6.100;2024-03-07T08:25:12;2.60;99.90
55642;DHT22;41509;53.108;6.100;2024-03-07T08:27:38;2.60;99.90
55642;DHT22;41509;53.108;6.100;2024-03-07T08:30:04;2.60;99.90
55642;DHT22;41509;53.108;6.100;2024-03-07T08:32:32;2.60;99.90
55642;DHT22;41509;53.108;6.100;2024-03-07T08:34:59;2.70;99.90
55642;DHT22;41509;53.108;6.100;2024-03-07T08:37:27;2.70;99.90
55642;DHT22;41509;53.108;6.100;2024-03-07T08:39:52;2.80;99.90
55642;DHT22;41509;53.108;6.100;2024-03-07T08:42:18;2.80;99.90
55642;DHT22;41509;53.108;6.100;2024-03-07T08:44:43;2.90;99.90
55642;DHT22;41509;53.108;6.100;2024-03-07T08:47:09;2.90;99.90
55642;DHT22;41509;53.108;6.100;2024-03-07T08:49:35;3.00;99.90
55642;DHT22;41509;53.108;6.100;2024-03-07T08:52:00;3.00;99.90
55642;DHT22;41509;53.108;6.100;2024-03-07T08:54:26;3.10;99.90
55642;DHT22;41509;53.108;6.100;2024-03-07T08:56:52;3.10;99.90
55642;DHT22;41509;53.108;6.100;2024-03-07T08:59:18;3.10;99.90
55642;DHT22;41509;53.108;6.100;2024-03-07T09:01:44;3.20;99.90
55642;DHT22;41509;53.108;6.100;2024-03-07T09:04:09;3.20;99.90
55642;DHT22;41509;53.108;6.100;2024-03-07T09:06:35;3.20;99.90
55642;DHT22;41509;53.108;6.100;2024-03-07T09:09:01;3.30;99.90
55642;DHT22;41509;53.108;6.100;2024-03-07T09:11:26;3.30;99.90
55642;DHT22;41509;53.108;6.100;2024-03-07T09:13:54;3.30;99.90
55642;DHT22;41509;53.108;6.100;2024-03-07T09:16:19;3.40;99.90
55642;DHT22;41509;53.108;6.100;2024-03-07T09:18:45;3.40;99.90
55642;DHT22;41509;53.108;6.100;2024-03-07T09:21:10;3.50;99.90
55642;DHT22;41509;53.108;6.100;2024-03-07T09:23:36;3.60;99.90
55642;DHT22;41509;53.108;6.100;2024-03-07T09:26:01;3.70;99.90
55642;DHT22;41509;53.108;6.100;2024-03-07T09:28:28;3.80;99.90
55642;DHT22;41509;53.108;6.100;2024-03-07T09:30:53;3.80;99.90
55642;DHT22;41509;53.108;6.100;2024-03-07T09:33:20;3.90;99.90
55642;DHT22;41509;53.108;6.100;2024-03-07T09:35:46;3.90;99.90
55642;DHT22;41509;53.108;6.100;2024-03-07T09:38:13;3.80;99.90
55642;DHT22;41509;53.108;6.100;2024-03-07T09:40:39;3.80;99.90
55642;DHT22;41509;53.108;6.100;2024-03-07T09:43:05;3.80;99.90
55642;DHT22;41509;53.108;6.100;2024-03-07T09:45:32;3.80;99.90
55642;DHT22;41509;53.108;6.100;2024-03-07T09:47:59;3.80;99.90
55642;DHT22;41509;53.108;6.100;2024-03-07T09:50:26;3.80;99.90
55642;DHT22;41509;53.108;6.100;2024-03-07T09:52:53;3.80;99.90
55642;DHT22;41509;53.108;6.100;2024-03-07T09:55:19;3.80;99.90
55642;DHT22;41509;53.108;6.100;2024-03-07T09:57:49;3.80;99.90
55642;DHT22;41509;53.108;6.100;2024-03-07T10:00:19;3.70;99.90
55642;DHT22;41509;53.108;6.100;2024-03-07T10:02:55;3.80;99.90
55642;DHT22;41509;53.108;6.100;2024-03-07T10:05:22;3.80;99.90
55642;DHT22;41509;53.108;6.100;2024-03-07T10:07:48;3.80;99.90
55642;DHT22;41509;53.108;6.100;2024-03-07T10:10:14;3.80;99.90
55642;DHT22;41509;53.108;6.100;2024-03-07T10:12:40;3.80;99.90
55642;DHT22;41509;53.108;6.100;2024-03-07T10:15:06;3.80;99.90
55642;DHT22;41509;53.108;6.100;2024-03-07T10:17:38;3.80;99.90
55642;DHT22;41509;53.108;6.100;2024-03-07T10:20:06;3.90;99.90
55642;DHT22;41509;53.108;6.100;2024-03-07T10:22:41;3.90;99.90
55642;DHT22;41509;53.108;6.100;2024-03-07T10:25:07;4.00;99.90
55642;DHT22;41509;53.108;6.100;2024-03-07T10:27:35;4.00;99.90
55642;DHT22;41509;53.108;6.100;2024-03-07T10:30:01;4.00;99.90
55642;DHT22;41509;53.108;6.100;2024-03-07T10:32:26;4.00;99.90
55642;DHT22;41509;53.108;6.100;2024-03-07T10:34:52;4.10;99.90
55642;DHT22;41509;53.108;6.100;2024-03-07T10:37:18;4.00;99.90
55642;DHT22;41509;53.108;6.100;2024-03-07T10:39:46;4.10;99.90
55642;DHT22;41509;53.108;6.100;2024-03-07T10:42:15;4.00;99.90
55642;DHT22;41509;53.108;6.100;2024-03-07T10:44:47;4.10;99.90
55642;DHT22;41509;53.108;6.100;2024-03-07T10:47:16;4.00;99.90
55642;DHT22;41509;53.108;6.100;2024-03-07T10:52:34;4.10;99.90
55642;DHT22;41509;53.108;6.100;2024-03-07T10:55:08;4.20;99.90
55642;DHT22;41509;53.108;6.100;2024-03-07T10:57:43;4.30;99.90
55642;DHT22;41509;53.108;6.100;2024-03-07T11:00:14;4.30;99.90
55642;DHT22;41509;53.108;6.100;2024-03-07T11:03:01;4.40;99.90
55642;DHT22;41509;53.108;6.100;2024-03-07T11:05:32;4.50;99.90
55642;DHT22;41509;53.108;6.100;2024-03-07T11:07:58;4.70;99.90
55642;DHT22;41509;53.108;6.100;2024-03-07T11:10:25;4.70;99.90
55642;DHT22;41509;53.108;6.100;2024-03-07T11:12:50;4.80;99.90
55642;DHT22;41509;53.108;6.100;2024-03-07T11:15:17;4.90;99.90
55642;DHT22;41509;53.108;6.100;2024-03-07T11:17:45;4.90;99.90
55642;DHT22;41509;53.108;6.100;2024-03-07T11:20:21;5.00;99.90
55642;DHT22;41509;53.108;6.100;2024-03-07T11:22:47;5.10;99.90
55642;DHT22;41509;53.108;6.100;2024-03-07T11:25:13;5.10;99.90
55642;DHT22;41509;53.108;6.100;2024-03-07T11:27:39;5.20;99.90
55642;DHT22;41509;53.108;6.100;2024-03-07T11:30:05;5.20;99.90
55642;DHT22;41509;53.108;6.100;2024-03-07T11:32:39;5.20;99.90
55642;DHT22;41509;53.108;6.100;2024-03-07T11:35:15;5.20;99.90
55642;DHT22;41509;53.108;6.100;2024-03-07T11:37:44;5.20;99.90
55642;DHT22;41509;53.108;6.100;2024-03-07T11:40:58;5.20;99.90
55642;DHT22;41509;53.108;6.100;2024-03-07T11:42:57;5.30;99.90
55642;DHT22;41509;53.108;6.100;2024-03-07T11:45:25;5.40;99.90
55642;DHT22;41509;53.108;6.100;2024-03-07T11:47:55;5.30;99.90
55642;DHT22;41509;53.108;6.100;2024-03-07T11:50:32;5.30;99.90
55642;DHT22;41509;53.108;6.100;2024-03-07T11:53:00;5.40;99.90
55642;DHT22;41509;53.108;6.100;2024-03-07T11:55:26;5.50;99.90
55642;DHT22;41509;53.108;6.100;2024-03-07T11:57:53;5.50;99.90
55642;DHT22;41509;53.108;6.100;2024-03-07T12:00:19;5.60;99.90
55642;DHT22;41509;53.108;6.100;2024-03-07T12:02:46;5.70;99.90
55642;DHT22;41509;53.108;6.100;2024-03-07T12:05:14;5.70;99.90
55642;DHT22;41509;53.108;6.100;2024-03-07T12:07:41;5.70;99.90
55642;DHT22;41509;53.108;6.100;2024-03-07T12:10:07;5.80;99.90
55642;DHT22;41509;53.108;6.100;2024-03-07T12:12:32;5.80;99.90
55642;DHT22;41509;53.108;6.100;2024-03-07T12:14:58;5.90;99.90
55642;DHT22;41509;53.108;6.100;2024-03-07T12:17:24;6.00;99.90
55642;DHT22;41509;53.108;6.100;2024-03-07T12:19:50;6.00;99.90
55642;DHT22;41509;53.108;6.100;2024-03-07T12:22:19;6.00;99.90
55642;DHT22;41509;53.108;6.100;2024-03-07T12:24:59;6.10;99.90
55642;DHT22;41509;53.108;6.100;2024-03-07T12:27:26;6.10;99.90
55642;DHT22;41509;53.108;6.100;2024-03-07T12:29:52;6.20;99.90
55642;DHT22;41509;53.108;6.100;2024-03-07T12:32:19;6.20;99.90
55642;DHT22;41509;53.108;6.100;2024-03-07T12:34:44;6.20;99.90
55642;DHT22;41509;53.108;6.100;2024-03-07T12:37:13;6.30;99.90
55642;DHT22;41509;53.108;6.100;2024-03-07T12:39:42;6.40;99.90
55642;DHT22;41509;53.108;6.100;2024-03-07T12:42:24;6.50;99.90
55642;DHT22;41509;53.108;6.100;2024-03-07T12:44:50;6.50;99.90
55642;DHT22;41509;53.108;6.100;2024-03-07T12:47:15;6.60;99.90
55642;DHT22;41509;53.108;6.100;2024-03-07T12:49:41;6.50;99.90
55642;DHT22;41509;53.108;6.100;2024-03-07T12:52:07;6.50;99.90
55642;DHT22;41509;53.108;6.100;2024-03-07T12:54:36;6.40;99.90
55642;DHT22;41509;53.108;6.100;2024-03-07T12:57:08;6.40;99.90
55642;DHT22;41509;53.108;6.100;2024-03-07T12:59:43;6.40;99.90
55642;DHT22;41509;53.108;6.100;2024-03-07T13:02:09;6.40;99.90
55642;DHT22;41509;53.108;6.100;2024-03-07T13:04:35;6.40;99.90
55642;DHT22;41509;53.108;6.100;2024-03-07T13:07:06;6.40;99.90
55642;DHT22;41509;53.108;6.100;2024-03-07T13:09:35;6.40;99.90
55642;DHT22;41509;53.108;6.100;2024-03-07T13:12:03;6.50;99.90
55642;DHT22;41509;53.108;6.100;2024-03-07T13:14:29;6.50;99.90
55642;DHT22;41509;53.108;6.100;2024-03-07T13:17:01;6.60;99.90
55642;DHT22;41509;53.108;6.100;2024-03-07T13:19:29;6.60;99.90
55642;DHT22;41509;53.108;6.100;2024-03-07T13:21:56;6.70;99.90
55642;DHT22;41509;53.108;6.100;2024-03-07T13:24:21;6.70;99.90
55642;DHT22;41509;53.108;6.100;2024-03-07T13:26:47;6.70;99.90
55642;DHT22;41509;53.108;6.100;2024-03-07T13:29:16;6.80;99.90
55642;DHT22;41509;53.108;6.100;2024-03-07T13:31:44;6.70;99.90
55642;DHT22;41509;53.108;6.100;2024-03-07T13:34:10;6.70;99.90
55642;DHT22;41509;53.108;6.100;2024-03-07T13:36:39;6.70;99.90
55642;DHT22;41509;53.108;6.100;2024-03-07T13:39:06;6.80;99.90
55642;DHT22;41509;53.108;6.100;2024-03-07T13:41:37;6.80;99.90
55642;DHT22;41509;53.108;6.100;2024-03-07T13:44:02;6.70;99.90
55642;DHT22;41509;53.108;6.100;2024-03-07T13:46:28;6.80;99.90
55642;DHT22;41509;53.108;6.100;2024-03-07T13:48:54;6.80;99.90
55642;DHT22;41509;53.108;6.100;2024-03-07T13:51:37;6.80;99.90
55642;DHT22;41509;53.108;6.100;2024-03-07T13:54:04;6.70;99.90
55642;DHT22;41509;53.108;6.100;2024-03-07T13:56:55;6.80;99.90
55642;DHT22;41509;53.108;6.100;2024-03-07T13:59:33;6.80;99.90
55642;DHT22;41509;53.108;6.100;2024-03-07T14:04:45;6.80;99.90
55642;DHT22;41509;53.108;6.100;2024-03-07T14:18:34;6.80;99.90
55642;DHT22;41509;53.108;6.100;2024-03-07T14:29:19;6.70;99.90
55642;DHT22;41509;53.108;6.100;2024-03-07T14:31:46;6.70;99.90
55642;DHT22;41509;53.108;6.100;2024-03-07T14:36:49;6.70;99.90
55642;DHT22;41509;53.108;6.100;2024-03-07T14:39:15;6.70;99.90
55642;DHT22;41509;53.108;6.100;2024-03-07T14:41:52;6.70;99.90
55642;DHT22;41509;53.108;6.100;2024-03-07T14:44:19;6.70;99.90
55642;DHT22;41509;53.108;6.100;2024-03-07T14:46:46;6.70;99.90
55642;DHT22;41509;53.108;6.100;2024-03-07T14:49:13;6.70;99.90
55642;DHT22;41509;53.108;6.100;2024-03-07T14:51:41;6.70;99.90
55642;DHT22;41509;53.108;6.100;2024-03-07T14:54:07;6.70;99.90
55642;DHT22;41509;53.108;6.100;2024-03-07T14:56:33;6.70;99.90
55642;DHT22;41509;53.108;6.100;2024-03-07T14:58:59;6.60;99.90
55642;DHT22;41509;53.108;6.100;2024-03-07T15:01:26;6.70;99.90
55642;DHT22;41509;53.108;6.100;2024-03-07T15:03:52;6.70;99.90
55642;DHT22;41509;53.108;6.100;2024-03-07T15:06:18;6.70;99.90
55642;DHT22;41509;53.108;6.100;2024-03-07T15:08:46;6.70;99.90
55642;DHT22;41509;53.108;6.100;2024-03-07T15:11:17;6.60;99.90
55642;DHT22;41509;53.108;6.100;2024-03-07T15:13:46;6.70;99.90
55642;DHT22;41509;53.108;6.100;2024-03-07T15:16:13;6.60;99.90
55642;DHT22;41509;53.108;6.100;2024-03-07T15:18:38;6.60;99.90
55642;DHT22;41509;53.108;6.100;2024-03-07T15:21:04;6.60;99.90
55642;DHT22;41509;53.108;6.100;2024-03-07T15:23:30;6.60;99.90
55642;DHT22;41509;53.108;6.100;2024-03-07T15:25:56;6.60;99.90
55642;DHT22;41509;53.108;6.100;2024-03-07T15:28:21;6.60;99.90
55642;DHT22;41509;53.108;6.100;2024-03-07T15:30:47;6.60;99.90
55642;DHT22;41509;53.108;6.100;2024-03-07T15:33:13;6.60;99.90
55642;DHT22;41509;53.108;6.100;2024-03-07T15:35:40;6.60;99.90
55642;DHT22;41509;53.108;6.100;2024-03-07T15:38:06;6.60;99.90
55642;DHT22;41509;53.108;6.100;2024-03-07T15:40:32;6.60;99.90
55642;DHT22;41509;53.108;6.100;2024-03-07T15:42:59;6.70;99.90
55642;DHT22;41509;53.108;6.100;2024-03-07T15:45:27;6.70;99.90
55642;DHT22;41509;53.108;6.100;2024-03-07T15:47:57;6.70;99.90
55642;DHT22;41509;53.108;6.100;2024-03-07T15:50:30;6.70;99.90
55642;DHT22;41509;53.108;6.100;2024-03-07T15:52:56;6.70;99.90
55642;DHT22;41509;53.108;6.100;2024-03-07T15:55:24;6.70;99.90
55642;DHT22;41509;53.108;6.100;2024-03-07T15:57:50;6.70;99.90
55642;DHT22;41509;53.108;6.100;2024-03-07T16:00:19;6.70;99.90
55642;DHT22;41509;53.108;6.100;2024-03-07T16:05:23;6.70;99.90
55642;DHT22;41509;53.108;6.100;2024-03-07T16:07:50;6.70;99.90
55642;DHT22;41509;53.108;6.100;2024-03-07T16:10:16;6.80;99.90
55642;DHT22;41509;53.108;6.100;2024-03-07T16:12:41;6.80;99.90
55642;DHT22;41509;53.108;6.100;2024-03-07T16:15:07;6.80;99.90
55642;DHT22;41509;53.108;6.100;2024-03-07T16:17:36;6.80;99.90